Grand Junction Regional Airport
KGJT : rendu visible

Aérodrome :











RETROUVEZ-NOUS SUR...

 
LOGIN :

S'inscrire | Disclaimer

   EN    FR    IT 

 









Légende :    VFR   VFR Marginal   IFR   IFR Intensif   IFR Très Intensif
Visi : 
Plafond : 
>= 8 km
>= 3000ft
5 à 8 km
1000 à 3000 ft
1500m à 5 km
500 à 1000 ft
800 à 1500m
200 à 500 ft
< 800m
< 200 ft
Symboles :   Orages  Brouillard  Fortes neiges  Fortes précipitations  Vent > 20 kt






- Altitude de l'aérodrome : 4858 ft
- Code IATA : GJT


KGJT - Grand Junction Regional

DERNIER METAR :
  • 190353Z 03003KT 10SM CLR M05/M10 A3048 RMK AO2 SLP359 T10501100

METARs EXPIRÉS :
  • 190253Z 06003KT 10SM CLR M05/M09 A3048 RMK AO2 SLP365 T10501089 51009
  • 190153Z 00000KT 10SM CLR M04/M08 A3048 RMK AO2 SLP360 T10391083

TAF KGJT
Valide du 19 à 00h jusqu'au 20 à 00h UTC


182333Z 1900/1924 VRB03KT P6SM FEW150 BKN250
FM190400 VRB03KT P6SM FEW120 SCT250
FM191600 10005KT P6SM FEW120 SCT250
FM192000 VRB03KT P6SM FEW120 SCT250



MET'MAP, la Météo Aéronautique d'un coup d'oeil ! - Copyright ORBIFLY Décembre 2007 - Disclaimer

ORBIFLY MET'MAP TEAM :

Programmation & Développement : Alexandra Zaïnal
Sur une idée originale de : Baudouin d'Aumeries
Assistance à la programmation : Marc-Olivier Méhu
Soutien technique & logistique : Manuel Goepfert

Contact : metmap@orbifly.com




SOURCES & CREDITS :

   NOAA       Earth
Advisory